sensor_id;sensor_type;location;lat;lon;timestamp;temperature;humidity
21282;DHT22;10800;53.096;18.328;2023-12-29T00:01:05;5.80;99.90
21282;DHT22;10800;53.096;18.328;2023-12-29T00:06:13;5.60;99.90
21282;DHT22;10800;53.096;18.328;2023-12-29T00:11:20;5.50;99.90
21282;DHT22;10800;53.096;18.328;2023-12-29T00:16:27;5.50;99.90
21282;DHT22;10800;53.096;18.328;2023-12-29T00:21:36;5.40;99.90
21282;DHT22;10800;53.096;18.328;2023-12-29T00:26:43;5.30;99.90
21282;DHT22;10800;53.096;18.328;2023-12-29T00:31:50;5.20;99.90
21282;DHT22;10800;53.096;18.328;2023-12-29T00:36:56;5.20;99.90
21282;DHT22;10800;53.096;18.328;2023-12-29T00:42:05;5.10;99.90
21282;DHT22;10800;53.096;18.328;2023-12-29T00:47:14;5.00;99.90
21282;DHT22;10800;53.096;18.328;2023-12-29T00:52:20;5.00;99.90
21282;DHT22;10800;53.096;18.328;2023-12-29T00:57:26;5.00;99.90
21282;DHT22;10800;53.096;18.328;2023-12-29T01:02:31;5.10;99.90
21282;DHT22;10800;53.096;18.328;2023-12-29T01:07:37;5.20;99.90
21282;DHT22;10800;53.096;18.328;2023-12-29T01:12:42;5.20;99.90
21282;DHT22;10800;53.096;18.328;2023-12-29T01:17:49;5.20;99.90
21282;DHT22;10800;53.096;18.328;2023-12-29T01:22:56;5.20;99.90
21282;DHT22;10800;53.096;18.328;2023-12-29T01:28:02;5.20;99.90
21282;DHT22;10800;53.096;18.328;2023-12-29T01:33:08;5.20;99.90
21282;DHT22;10800;53.096;18.328;2023-12-29T01:38:13;5.20;99.90
21282;DHT22;10800;53.096;18.328;2023-12-29T01:43:20;5.30;99.90
21282;DHT22;10800;53.096;18.328;2023-12-29T01:48:26;5.30;99.90
21282;DHT22;10800;53.096;18.328;2023-12-29T01:53:32;5.20;99.90
21282;DHT22;10800;53.096;18.328;2023-12-29T01:58:40;5.10;99.90
21282;DHT22;10800;53.096;18.328;2023-12-29T02:03:46;5.20;99.90
21282;DHT22;10800;53.096;18.328;2023-12-29T02:08:53;5.20;99.90
21282;DHT22;10800;53.096;18.328;2023-12-29T02:14:01;5.10;99.90
21282;DHT22;10800;53.096;18.328;2023-12-29T02:24:49;5.10;99.90
21282;DHT22;10800;53.096;18.328;2023-12-29T02:35:42;5.00;99.90
21282;DHT22;10800;53.096;18.328;2023-12-29T02:40:49;4.90;99.90
21282;DHT22;10800;53.096;18.328;2023-12-29T02:45:58;5.00;99.90
21282;DHT22;10800;53.096;18.328;2023-12-29T02:51:05;5.00;99.90
21282;DHT22;10800;53.096;18.328;2023-12-29T02:56:17;5.10;99.90
21282;DHT22;10800;53.096;18.328;2023-12-29T03:01:33;5.00;99.90
21282;DHT22;10800;53.096;18.328;2023-12-29T03:06:47;5.10;99.90
21282;DHT22;10800;53.096;18.328;2023-12-29T03:12:01;5.10;99.90
21282;DHT22;10800;53.096;18.328;2023-12-29T03:17:12;5.20;99.90
21282;DHT22;10800;53.096;18.328;2023-12-29T03:22:18;5.30;99.90
21282;DHT22;10800;53.096;18.328;2023-12-29T03:27:27;5.40;99.90
21282;DHT22;10800;53.096;18.328;2023-12-29T03:32:39;5.50;99.90
21282;DHT22;10800;53.096;18.328;2023-12-29T03:37:47;5.50;99.90
21282;DHT22;10800;53.096;18.328;2023-12-29T03:43:03;5.50;99.90
21282;DHT22;10800;53.096;18.328;2023-12-29T03:48:14;5.50;99.90
21282;DHT22;10800;53.096;18.328;2023-12-29T03:53:19;5.50;99.90
21282;DHT22;10800;53.096;18.328;2023-12-29T03:58:25;5.70;99.90
21282;DHT22;10800;53.096;18.328;2023-12-29T04:03:31;5.80;99.90
21282;DHT22;10800;53.096;18.328;2023-12-29T04:08:37;5.80;99.90
21282;DHT22;10800;53.096;18.328;2023-12-29T04:13:44;5.70;99.90
21282;DHT22;10800;53.096;18.328;2023-12-29T04:18:49;5.70;99.90
21282;DHT22;10800;53.096;18.328;2023-12-29T04:23:55;5.80;99.90
21282;DHT22;10800;53.096;18.328;2023-12-29T04:29:01;5.70;99.90
21282;DHT22;10800;53.096;18.328;2023-12-29T04:34:06;5.70;99.90
21282;DHT22;10800;53.096;18.328;2023-12-29T04:39:12;5.80;99.90
21282;DHT22;10800;53.096;18.328;2023-12-29T04:44:18;5.90;99.90
21282;DHT22;10800;53.096;18.328;2023-12-29T04:49:23;5.90;99.90
21282;DHT22;10800;53.096;18.328;2023-12-29T04:54:29;6.00;99.90
21282;DHT22;10800;53.096;18.328;2023-12-29T04:59:35;6.10;99.90
21282;DHT22;10800;53.096;18.328;2023-12-29T05:04:40;6.10;99.90
21282;DHT22;10800;53.096;18.328;2023-12-29T05:09:47;6.10;99.90
21282;DHT22;10800;53.096;18.328;2023-12-29T05:14:53;6.00;99.90
21282;DHT22;10800;53.096;18.328;2023-12-29T05:19:59;6.20;99.90
21282;DHT22;10800;53.096;18.328;2023-12-29T05:25:05;6.10;99.90
21282;DHT22;10800;53.096;18.328;2023-12-29T05:30:12;6.10;99.90
21282;DHT22;10800;53.096;18.328;2023-12-29T05:35:18;5.90;99.90
21282;DHT22;10800;53.096;18.328;2023-12-29T05:40:25;5.90;99.90
21282;DHT22;10800;53.096;18.328;2023-12-29T05:45:31;6.00;99.90
21282;DHT22;10800;53.096;18.328;2023-12-29T05:50:37;5.90;99.90
21282;DHT22;10800;53.096;18.328;2023-12-29T05:55:43;6.00;99.90
21282;DHT22;10800;53.096;18.328;2023-12-29T06:00:50;5.90;99.90
21282;DHT22;10800;53.096;18.328;2023-12-29T06:05:56;5.90;99.90
21282;DHT22;10800;53.096;18.328;2023-12-29T06:11:01;5.90;99.90
21282;DHT22;10800;53.096;18.328;2023-12-29T06:16:07;6.00;99.90
21282;DHT22;10800;53.096;18.328;2023-12-29T06:21:16;5.90;99.90
21282;DHT22;10800;53.096;18.328;2023-12-29T06:26:27;6.00;99.90
21282;DHT22;10800;53.096;18.328;2023-12-29T06:31:41;5.90;99.90
21282;DHT22;10800;53.096;18.328;2023-12-29T06:36:48;5.90;99.90
21282;DHT22;10800;53.096;18.328;2023-12-29T06:41:59;5.90;99.90
21282;DHT22;10800;53.096;18.328;2023-12-29T06:47:05;5.90;99.90
21282;DHT22;10800;53.096;18.328;2023-12-29T06:52:11;6.00;99.90
21282;DHT22;10800;53.096;18.328;2023-12-29T06:57:17;6.10;99.90
21282;DHT22;10800;53.096;18.328;2023-12-29T07:02:28;6.10;99.90
21282;DHT22;10800;53.096;18.328;2023-12-29T07:07:35;6.20;99.90
21282;DHT22;10800;53.096;18.328;2023-12-29T07:12:42;6.30;99.90
21282;DHT22;10800;53.096;18.328;2023-12-29T07:17:48;6.50;99.90
21282;DHT22;10800;53.096;18.328;2023-12-29T07:22:55;6.50;99.90
21282;DHT22;10800;53.096;18.328;2023-12-29T07:28:00;6.50;99.90
21282;DHT22;10800;53.096;18.328;2023-12-29T07:33:07;6.60;99.90
21282;DHT22;10800;53.096;18.328;2023-12-29T07:38:12;6.70;99.90
21282;DHT22;10800;53.096;18.328;2023-12-29T07:43:18;6.70;99.90
21282;DHT22;10800;53.096;18.328;2023-12-29T07:48:24;6.80;99.90
21282;DHT22;10800;53.096;18.328;2023-12-29T07:53:29;6.80;99.90
21282;DHT22;10800;53.096;18.328;2023-12-29T07:58:35;6.90;99.90
21282;DHT22;10800;53.096;18.328;2023-12-29T08:03:42;6.90;99.90
21282;DHT22;10800;53.096;18.328;2023-12-29T08:08:48;7.00;99.90
21282;DHT22;10800;53.096;18.328;2023-12-29T08:13:53;7.00;99.90
21282;DHT22;10800;53.096;18.328;2023-12-29T08:19:00;7.00;99.90
21282;DHT22;10800;53.096;18.328;2023-12-29T08:24:07;7.10;99.90
21282;DHT22;10800;53.096;18.328;2023-12-29T08:29:13;7.30;99.90
21282;DHT22;10800;53.096;18.328;2023-12-29T08:34:33;7.40;99.90
21282;DHT22;10800;53.096;18.328;2023-12-29T08:39:41;7.50;99.90
21282;DHT22;10800;53.096;18.328;2023-12-29T08:44:47;7.50;99.90
21282;DHT22;10800;53.096;18.328;2023-12-29T08:49:54;7.60;99.90
21282;DHT22;10800;53.096;18.328;2023-12-29T08:55:00;7.60;99.90
21282;DHT22;10800;53.096;18.328;2023-12-29T09:00:09;7.60;99.90
21282;DHT22;10800;53.096;18.328;2023-12-29T09:05:17;7.70;99.90
21282;DHT22;10800;53.096;18.328;2023-12-29T09:10:26;7.80;99.90
21282;DHT22;10800;53.096;18.328;2023-12-29T09:15:33;7.70;99.90
21282;DHT22;10800;53.096;18.328;2023-12-29T09:20:42;7.70;99.90
21282;DHT22;10800;53.096;18.328;2023-12-29T09:25:52;7.80;99.90
21282;DHT22;10800;53.096;18.328;2023-12-29T09:31:12;8.00;99.90
21282;DHT22;10800;53.096;18.328;2023-12-29T09:36:20;8.10;99.90
21282;DHT22;10800;53.096;18.328;2023-12-29T09:41:34;8.20;99.90
21282;DHT22;10800;53.096;18.328;2023-12-29T09:46:42;8.30;99.90
21282;DHT22;10800;53.096;18.328;2023-12-29T09:51:53;8.30;99.90
21282;DHT22;10800;53.096;18.328;2023-12-29T09:57:03;8.40;99.90
21282;DHT22;10800;53.096;18.328;2023-12-29T10:02:15;8.40;99.90
21282;DHT22;10800;53.096;18.328;2023-12-29T10:07:27;8.40;99.90
21282;DHT22;10800;53.096;18.328;2023-12-29T10:12:41;8.40;99.90
21282;DHT22;10800;53.096;18.328;2023-12-29T10:23:40;8.70;99.90
21282;DHT22;10800;53.096;18.328;2023-12-29T10:28:51;8.90;99.90
21282;DHT22;10800;53.096;18.328;2023-12-29T10:34:21;9.00;99.90
21282;DHT22;10800;53.096;18.328;2023-12-29T10:39:41;9.00;99.90
21282;DHT22;10800;53.096;18.328;2023-12-29T10:44:53;9.00;99.90
21282;DHT22;10800;53.096;18.328;2023-12-29T10:50:04;9.00;99.90
21282;DHT22;10800;53.096;18.328;2023-12-29T10:55:22;9.10;99.90
21282;DHT22;10800;53.096;18.328;2023-12-29T11:00:37;9.10;99.90
21282;DHT22;10800;53.096;18.328;2023-12-29T11:05:45;9.30;99.90
21282;DHT22;10800;53.096;18.328;2023-12-29T11:10:57;9.70;99.90
21282;DHT22;10800;53.096;18.328;2023-12-29T11:16:27;10.10;99.90
21282;DHT22;10800;53.096;18.328;2023-12-29T11:21:42;10.00;99.90
21282;DHT22;10800;53.096;18.328;2023-12-29T11:26:56;10.30;99.90
21282;DHT22;10800;53.096;18.328;2023-12-29T11:32:18;10.70;99.90
21282;DHT22;10800;53.096;18.328;2023-12-29T11:37:35;10.70;99.90
21282;DHT22;10800;53.096;18.328;2023-12-29T11:43:01;10.80;99.90
21282;DHT22;10800;53.096;18.328;2023-12-29T11:48:56;10.60;99.90
21282;DHT22;10800;53.096;18.328;2023-12-29T11:53:59;10.60;99.90
21282;DHT22;10800;53.096;18.328;2023-12-29T11:59:46;10.50;99.90
21282;DHT22;10800;53.096;18.328;2023-12-29T12:04:50;10.60;99.90
21282;DHT22;10800;53.096;18.328;2023-12-29T12:15:39;10.70;99.90
21282;DHT22;10800;53.096;18.328;2023-12-29T12:20:50;10.60;99.90
21282;DHT22;10800;53.096;18.328;2023-12-29T12:26:12;10.40;99.90
21282;DHT22;10800;53.096;18.328;2023-12-29T12:31:23;10.20;99.90
21282;DHT22;10800;53.096;18.328;2023-12-29T12:36:36;10.10;99.90
21282;DHT22;10800;53.096;18.328;2023-12-29T12:41:50;10.10;99.90
21282;DHT22;10800;53.096;18.328;2023-12-29T12:47:05;10.00;99.90
21282;DHT22;10800;53.096;18.328;2023-12-29T12:52:10;10.00;99.90
21282;DHT22;10800;53.096;18.328;2023-12-29T12:57:20;9.90;99.90
21282;DHT22;10800;53.096;18.328;2023-12-29T13:02:34;9.90;99.90
21282;DHT22;10800;53.096;18.328;2023-12-29T13:07:46;9.90;99.90
21282;DHT22;10800;53.096;18.328;2023-12-29T13:12:55;9.90;99.90
21282;DHT22;10800;53.096;18.328;2023-12-29T13:18:03;10.00;99.90
21282;DHT22;10800;53.096;18.328;2023-12-29T13:23:17;10.00;99.90
21282;DHT22;10800;53.096;18.328;2023-12-29T13:28:34;9.90;99.90
21282;DHT22;10800;53.096;18.328;2023-12-29T13:33:59;9.80;99.90
21282;DHT22;10800;53.096;18.328;2023-12-29T13:39:45;9.70;99.90
21282;DHT22;10800;53.096;18.328;2023-12-29T13:45:08;9.70;99.90
21282;DHT22;10800;53.096;18.328;2023-12-29T13:50:20;9.80;99.90
21282;DHT22;10800;53.096;18.328;2023-12-29T13:55:40;9.70;99.90
21282;DHT22;10800;53.096;18.328;2023-12-29T14:00:53;9.70;99.90
21282;DHT22;10800;53.096;18.328;2023-12-29T14:06:18;9.70;99.90
21282;DHT22;10800;53.096;18.328;2023-12-29T14:11:24;9.70;99.90
21282;DHT22;10800;53.096;18.328;2023-12-29T14:16:37;9.60;99.90
21282;DHT22;10800;53.096;18.328;2023-12-29T14:21:44;9.50;99.90
21282;DHT22;10800;53.096;18.328;2023-12-29T14:26:56;9.50;99.90
21282;DHT22;10800;53.096;18.328;2023-12-29T14:32:08;9.50;99.90
21282;DHT22;10800;53.096;18.328;2023-12-29T14:37:18;9.40;99.90
21282;DHT22;10800;53.096;18.328;2023-12-29T14:42:30;9.40;99.90
21282;DHT22;10800;53.096;18.328;2023-12-29T14:48:22;9.30;99.90
21282;DHT22;10800;53.096;18.328;2023-12-29T14:53:39;9.20;99.90
21282;DHT22;10800;53.096;18.328;2023-12-29T14:58:54;9.20;99.90
21282;DHT22;10800;53.096;18.328;2023-12-29T15:04:06;9.10;99.90
21282;DHT22;10800;53.096;18.328;2023-12-29T15:09:20;9.00;99.90
21282;DHT22;10800;53.096;18.328;2023-12-29T15:14:23;9.10;99.90
21282;DHT22;10800;53.096;18.328;2023-12-29T15:19:40;9.00;99.90
21282;DHT22;10800;53.096;18.328;2023-12-29T15:24:49;9.00;99.90
21282;DHT22;10800;53.096;18.328;2023-12-29T15:30:06;9.00;99.90
21282;DHT22;10800;53.096;18.328;2023-12-29T15:35:40;9.10;99.90
21282;DHT22;10800;53.096;18.328;2023-12-29T15:40:56;9.10;99.90
21282;DHT22;10800;53.096;18.328;2023-12-29T15:46:12;9.20;99.90
21282;DHT22;10800;53.096;18.328;2023-12-29T15:51:28;9.20;99.90
21282;DHT22;10800;53.096;18.328;2023-12-29T15:56:53;9.30;99.90
21282;DHT22;10800;53.096;18.328;2023-12-29T16:02:14;9.30;99.90
21282;DHT22;10800;53.096;18.328;2023-12-29T16:07:31;9.20;99.90
21282;DHT22;10800;53.096;18.328;2023-12-29T16:13:01;9.10;99.90
21282;DHT22;10800;53.096;18.328;2023-12-29T16:18:09;9.10;99.90
21282;DHT22;10800;53.096;18.328;2023-12-29T16:23:20;9.00;99.90
21282;DHT22;10800;53.096;18.328;2023-12-29T16:28:52;9.00;99.90
21282;DHT22;10800;53.096;18.328;2023-12-29T16:34:24;9.00;99.90
21282;DHT22;10800;53.096;18.328;2023-12-29T16:39:46;9.00;99.90
21282;DHT22;10800;53.096;18.328;2023-12-29T16:44:53;8.90;99.90
21282;DHT22;10800;53.096;18.328;2023-12-29T16:50:10;9.00;99.90
21282;DHT22;10800;53.096;18.328;2023-12-29T16:55:18;8.90;99.90
21282;DHT22;10800;53.096;18.328;2023-12-29T17:00:26;8.90;99.90
21282;DHT22;10800;53.096;18.328;2023-12-29T17:05:31;8.80;99.90
21282;DHT22;10800;53.096;18.328;2023-12-29T17:10:42;8.80;99.90
21282;DHT22;10800;53.096;18.328;2023-12-29T17:15:49;8.70;99.90
21282;DHT22;10800;53.096;18.328;2023-12-29T17:20:55;8.70;99.90
21282;DHT22;10800;53.096;18.328;2023-12-29T17:26:09;8.50;99.90
21282;DHT22;10800;53.096;18.328;2023-12-29T17:31:19;8.40;99.90
21282;DHT22;10800;53.096;18.328;2023-12-29T17:36:46;8.20;99.90
21282;DHT22;10800;53.096;18.328;2023-12-29T17:42:42;8.00;99.90
21282;DHT22;10800;53.096;18.328;2023-12-29T17:48:21;7.90;99.90
21282;DHT22;10800;53.096;18.328;2023-12-29T17:54:40;7.70;99.90
21282;DHT22;10800;53.096;18.328;2023-12-29T18:00:14;7.60;99.90
21282;DHT22;10800;53.096;18.328;2023-12-29T18:05:39;7.60;99.90
21282;DHT22;10800;53.096;18.328;2023-12-29T18:11:08;7.50;99.90
21282;DHT22;10800;53.096;18.328;2023-12-29T18:16:45;7.50;99.90
21282;DHT22;10800;53.096;18.328;2023-12-29T18:22:14;7.50;99.90
21282;DHT22;10800;53.096;18.328;2023-12-29T18:27:29;7.50;99.90
21282;DHT22;10800;53.096;18.328;2023-12-29T18:32:57;7.50;99.90
21282;DHT22;10800;53.096;18.328;2023-12-29T18:38:50;7.30;99.90
21282;DHT22;10800;53.096;18.328;2023-12-29T18:44:02;7.10;99.90
21282;DHT22;10800;53.096;18.328;2023-12-29T18:49:15;7.00;99.90
21282;DHT22;10800;53.096;18.328;2023-12-29T18:54:28;7.00;99.90
21282;DHT22;10800;53.096;18.328;2023-12-29T18:59:43;6.90;99.90
21282;DHT22;10800;53.096;18.328;2023-12-29T19:05:03;6.90;99.90
21282;DHT22;10800;53.096;18.328;2023-12-29T19:10:38;6.80;99.90
21282;DHT22;10800;53.096;18.328;2023-12-29T19:16:06;6.90;99.90
21282;DHT22;10800;53.096;18.328;2023-12-29T19:21:43;6.90;99.90
21282;DHT22;10800;53.096;18.328;2023-12-29T19:27:02;6.80;99.90
21282;DHT22;10800;53.096;18.328;2023-12-29T19:32:27;6.80;99.90
21282;DHT22;10800;53.096;18.328;2023-12-29T19:37:51;6.70;99.90
21282;DHT22;10800;53.096;18.328;2023-12-29T19:43:27;6.60;99.90
21282;DHT22;10800;53.096;18.328;2023-12-29T19:48:39;6.50;99.90
21282;DHT22;10800;53.096;18.328;2023-12-29T19:53:53;6.40;99.90
21282;DHT22;10800;53.096;18.328;2023-12-29T19:59:05;6.20;99.90
21282;DHT22;10800;53.096;18.328;2023-12-29T20:04:28;6.10;99.90
21282;DHT22;10800;53.096;18.328;2023-12-29T20:09:44;6.10;99.90
21282;DHT22;10800;53.096;18.328;2023-12-29T20:15:08;6.10;99.90
21282;DHT22;10800;53.096;18.328;2023-12-29T20:21:06;6.10;99.90
21282;DHT22;10800;53.096;18.328;2023-12-29T20:26:29;6.20;99.90
21282;DHT22;10800;53.096;18.328;2023-12-29T20:31:47;6.20;99.90
21282;DHT22;10800;53.096;18.328;2023-12-29T20:37:01;6.10;99.90
21282;DHT22;10800;53.096;18.328;2023-12-29T20:42:14;6.10;99.90
21282;DHT22;10800;53.096;18.328;2023-12-29T20:47:29;6.10;99.90
21282;DHT22;10800;53.096;18.328;2023-12-29T20:52:40;6.00;99.90
21282;DHT22;10800;53.096;18.328;2023-12-29T20:58:12;6.00;99.90
21282;DHT22;10800;53.096;18.328;2023-12-29T21:03:32;6.00;99.90
21282;DHT22;10800;53.096;18.328;2023-12-29T21:09:05;5.90;99.90
21282;DHT22;10800;53.096;18.328;2023-12-29T21:14:27;5.90;99.90
21282;DHT22;10800;53.096;18.328;2023-12-29T21:19:49;6.10;99.90
21282;DHT22;10800;53.096;18.328;2023-12-29T21:25:09;6.40;99.90
21282;DHT22;10800;53.096;18.328;2023-12-29T21:30:47;6.50;99.90
21282;DHT22;10800;53.096;18.328;2023-12-29T21:36:36;6.50;99.90
21282;DHT22;10800;53.096;18.328;2023-12-29T21:41:48;6.50;99.90
21282;DHT22;10800;53.096;18.328;2023-12-29T21:47:32;6.50;99.90
21282;DHT22;10800;53.096;18.328;2023-12-29T21:53:07;6.70;99.90
21282;DHT22;10800;53.096;18.328;2023-12-29T21:58:17;6.90;99.90
21282;DHT22;10800;53.096;18.328;2023-12-29T22:03:25;6.90;99.90
21282;DHT22;10800;53.096;18.328;2023-12-29T22:08:33;7.00;99.90
21282;DHT22;10800;53.096;18.328;2023-12-29T22:13:39;7.10;99.90
21282;DHT22;10800;53.096;18.328;2023-12-29T22:18:44;7.20;99.90
21282;DHT22;10800;53.096;18.328;2023-12-29T22:23:52;7.40;99.90
21282;DHT22;10800;53.096;18.328;2023-12-29T22:29:06;7.50;99.90
21282;DHT22;10800;53.096;18.328;2023-12-29T22:34:18;7.60;99.90
21282;DHT22;10800;53.096;18.328;2023-12-29T22:39:52;7.60;99.90
21282;DHT22;10800;53.096;18.328;2023-12-29T22:44:58;7.70;99.90
21282;DHT22;10800;53.096;18.328;2023-12-29T22:50:04;7.70;99.90
21282;DHT22;10800;53.096;18.328;2023-12-29T22:55:10;7.70;99.90
21282;DHT22;10800;53.096;18.328;2023-12-29T23:00:17;7.80;99.90
21282;DHT22;10800;53.096;18.328;2023-12-29T23:05:24;8.00;99.90
21282;DHT22;10800;53.096;18.328;2023-12-29T23:10:30;8.00;99.90
21282;DHT22;10800;53.096;18.328;2023-12-29T23:15:37;8.10;99.90
21282;DHT22;10800;53.096;18.328;2023-12-29T23:20:42;8.10;99.90
21282;DHT22;10800;53.096;18.328;2023-12-29T23:25:48;8.10;99.90
21282;DHT22;10800;53.096;18.328;2023-12-29T23:30:54;8.10;99.90
21282;DHT22;10800;53.096;18.328;2023-12-29T23:36:00;8.10;99.90
21282;DHT22;10800;53.096;18.328;2023-12-29T23:41:06;8.10;99.90
21282;DHT22;10800;53.096;18.328;2023-12-29T23:46:12;8.10;99.90
21282;DHT22;10800;53.096;18.328;2023-12-29T23:51:18;7.90;99.90
21282;DHT22;10800;53.096;18.328;2023-12-29T23:56:24;8.00;99.90
